sensor_id;sensor_type;location;lat;lon;timestamp;temperature;humidity
51863;DHT22;37900;52.996;6.278;2022-07-06T00:01:21;20.00;98.50
51863;DHT22;37900;52.996;6.278;2022-07-06T00:03:46;20.00;98.50
51863;DHT22;37900;52.996;6.278;2022-07-06T00:06:12;20.00;98.50
51863;DHT22;37900;52.996;6.278;2022-07-06T00:08:38;20.00;98.50
51863;DHT22;37900;52.996;6.278;2022-07-06T00:11:05;20.00;98.50
51863;DHT22;37900;52.996;6.278;2022-07-06T00:13:30;20.00;98.50
51863;DHT22;37900;52.996;6.278;2022-07-06T00:15:56;20.00;98.50
51863;DHT22;37900;52.996;6.278;2022-07-06T00:18:22;19.90;98.50
51863;DHT22;37900;52.996;6.278;2022-07-06T00:20:48;19.90;98.50
51863;DHT22;37900;52.996;6.278;2022-07-06T00:23:14;19.90;98.50
51863;DHT22;37900;52.996;6.278;2022-07-06T00:25:39;19.90;98.50
51863;DHT22;37900;52.996;6.278;2022-07-06T00:28:05;20.00;98.50
51863;DHT22;37900;52.996;6.278;2022-07-06T00:30:31;19.90;98.60
51863;DHT22;37900;52.996;6.278;2022-07-06T00:32:57;19.90;98.50
51863;DHT22;37900;52.996;6.278;2022-07-06T00:35:26;19.90;98.50
51863;DHT22;37900;52.996;6.278;2022-07-06T00:37:52;19.90;98.50
51863;DHT22;37900;52.996;6.278;2022-07-06T00:40:18;19.90;98.50
51863;DHT22;37900;52.996;6.278;2022-07-06T00:42:48;19.90;98.50
51863;DHT22;37900;52.996;6.278;2022-07-06T00:45:16;19.90;98.50
51863;DHT22;37900;52.996;6.278;2022-07-06T00:47:42;19.90;98.50
51863;DHT22;37900;52.996;6.278;2022-07-06T00:50:10;19.90;98.50
51863;DHT22;37900;52.996;6.278;2022-07-06T00:52:43;19.90;98.50
51863;DHT22;37900;52.996;6.278;2022-07-06T00:55:10;19.90;98.50
51863;DHT22;37900;52.996;6.278;2022-07-06T00:57:37;19.90;98.50
51863;DHT22;37900;52.996;6.278;2022-07-06T01:00:08;19.90;98.50
51863;DHT22;37900;52.996;6.278;2022-07-06T01:02:35;19.90;98.50
51863;DHT22;37900;52.996;6.278;2022-07-06T01:05:03;19.90;98.50
51863;DHT22;37900;52.996;6.278;2022-07-06T01:07:30;19.90;98.50
51863;DHT22;37900;52.996;6.278;2022-07-06T01:09:56;19.90;98.50
51863;DHT22;37900;52.996;6.278;2022-07-06T01:12:22;19.90;98.50
51863;DHT22;37900;52.996;6.278;2022-07-06T01:14:48;19.90;98.50
51863;DHT22;37900;52.996;6.278;2022-07-06T01:17:15;19.90;98.50
51863;DHT22;37900;52.996;6.278;2022-07-06T01:19:42;19.90;98.50
51863;DHT22;37900;52.996;6.278;2022-07-06T01:22:08;19.80;98.50
51863;DHT22;37900;52.996;6.278;2022-07-06T01:24:35;19.90;98.60
51863;DHT22;37900;52.996;6.278;2022-07-06T01:27:03;19.90;98.80
51863;DHT22;37900;52.996;6.278;2022-07-06T01:29:29;19.80;98.50
51863;DHT22;37900;52.996;6.278;2022-07-06T01:31:55;19.90;98.60
51863;DHT22;37900;52.996;6.278;2022-07-06T01:34:21;19.90;98.60
51863;DHT22;37900;52.996;6.278;2022-07-06T01:36:47;19.90;98.60
51863;DHT22;37900;52.996;6.278;2022-07-06T01:39:13;19.80;98.50
51863;DHT22;37900;52.996;6.278;2022-07-06T01:41:39;19.80;98.50
51863;DHT22;37900;52.996;6.278;2022-07-06T01:44:05;19.80;98.60
51863;DHT22;37900;52.996;6.278;2022-07-06T01:46:32;19.80;98.60
51863;DHT22;37900;52.996;6.278;2022-07-06T01:48:58;19.80;98.60
51863;DHT22;37900;52.996;6.278;2022-07-06T01:51:24;19.80;98.60
51863;DHT22;37900;52.996;6.278;2022-07-06T01:53:51;19.80;98.60
51863;DHT22;37900;52.996;6.278;2022-07-06T01:56:18;19.80;98.60
51863;DHT22;37900;52.996;6.278;2022-07-06T01:58:47;19.80;98.60
51863;DHT22;37900;52.996;6.278;2022-07-06T02:01:15;19.80;98.60
51863;DHT22;37900;52.996;6.278;2022-07-06T02:03:42;19.80;98.60
51863;DHT22;37900;52.996;6.278;2022-07-06T02:06:08;19.80;98.60
51863;DHT22;37900;52.996;6.278;2022-07-06T02:08:35;19.80;98.60
51863;DHT22;37900;52.996;6.278;2022-07-06T02:11:02;19.80;98.60
51863;DHT22;37900;52.996;6.278;2022-07-06T02:13:28;19.80;98.50
51863;DHT22;37900;52.996;6.278;2022-07-06T02:15:53;19.80;98.60
51863;DHT22;37900;52.996;6.278;2022-07-06T02:18:19;19.80;98.60
51863;DHT22;37900;52.996;6.278;2022-07-06T02:20:45;19.80;98.60
51863;DHT22;37900;52.996;6.278;2022-07-06T02:23:11;19.80;98.60
51863;DHT22;37900;52.996;6.278;2022-07-06T02:25:36;19.80;98.60
51863;DHT22;37900;52.996;6.278;2022-07-06T02:28:02;19.80;98.60
51863;DHT22;37900;52.996;6.278;2022-07-06T02:30:28;19.80;98.60
51863;DHT22;37900;52.996;6.278;2022-07-06T02:32:54;19.80;98.60
51863;DHT22;37900;52.996;6.278;2022-07-06T02:35:20;19.70;98.60
51863;DHT22;37900;52.996;6.278;2022-07-06T02:37:46;19.80;98.60
51863;DHT22;37900;52.996;6.278;2022-07-06T02:40:12;19.70;98.60
51863;DHT22;37900;52.996;6.278;2022-07-06T02:42:38;19.80;98.60
51863;DHT22;37900;52.996;6.278;2022-07-06T02:45:04;19.80;98.60
51863;DHT22;37900;52.996;6.278;2022-07-06T02:47:30;19.80;98.60
51863;DHT22;37900;52.996;6.278;2022-07-06T02:49:56;19.70;98.60
51863;DHT22;37900;52.996;6.278;2022-07-06T02:52:21;19.80;98.60
51863;DHT22;37900;52.996;6.278;2022-07-06T02:54:47;19.80;98.60
51863;DHT22;37900;52.996;6.278;2022-07-06T02:57:15;19.70;98.60
51863;DHT22;37900;52.996;6.278;2022-07-06T02:59:41;19.80;98.60
51863;DHT22;37900;52.996;6.278;2022-07-06T03:02:07;19.70;98.60
51863;DHT22;37900;52.996;6.278;2022-07-06T03:04:33;19.80;98.70
51863;DHT22;37900;52.996;6.278;2022-07-06T03:07:00;19.80;98.70
51863;DHT22;37900;52.996;6.278;2022-07-06T03:09:26;19.70;98.60
51863;DHT22;37900;52.996;6.278;2022-07-06T03:11:52;19.80;98.70
51863;DHT22;37900;52.996;6.278;2022-07-06T03:14:18;19.80;98.70
51863;DHT22;37900;52.996;6.278;2022-07-06T03:16:44;19.80;98.60
51863;DHT22;37900;52.996;6.278;2022-07-06T03:19:10;19.70;98.60
51863;DHT22;37900;52.996;6.278;2022-07-06T03:21:36;19.80;98.70
51863;DHT22;37900;52.996;6.278;2022-07-06T03:24:02;19.70;98.60
51863;DHT22;37900;52.996;6.278;2022-07-06T03:26:28;19.80;98.70
51863;DHT22;37900;52.996;6.278;2022-07-06T03:28:53;19.70;98.60
51863;DHT22;37900;52.996;6.278;2022-07-06T03:31:19;19.70;98.90
51863;DHT22;37900;52.996;6.278;2022-07-06T03:33:45;19.70;98.60
51863;DHT22;37900;52.996;6.278;2022-07-06T03:36:11;19.70;98.60
51863;DHT22;37900;52.996;6.278;2022-07-06T03:38:36;19.70;98.60
51863;DHT22;37900;52.996;6.278;2022-07-06T03:41:02;19.70;98.60
51863;DHT22;37900;52.996;6.278;2022-07-06T03:43:28;19.70;98.60
51863;DHT22;37900;52.996;6.278;2022-07-06T03:45:54;19.70;98.70
51863;DHT22;37900;52.996;6.278;2022-07-06T03:48:20;19.70;98.60
51863;DHT22;37900;52.996;6.278;2022-07-06T03:50:46;19.70;98.70
51863;DHT22;37900;52.996;6.278;2022-07-06T03:53:11;19.70;98.60
51863;DHT22;37900;52.996;6.278;2022-07-06T03:55:37;19.70;98.70
51863;DHT22;37900;52.996;6.278;2022-07-06T03:58:03;19.70;98.70
51863;DHT22;37900;52.996;6.278;2022-07-06T04:00:29;19.70;98.70
51863;DHT22;37900;52.996;6.278;2022-07-06T04:02:54;19.70;98.70
51863;DHT22;37900;52.996;6.278;2022-07-06T04:05:20;19.70;98.70
51863;DHT22;37900;52.996;6.278;2022-07-06T04:07:50;19.70;98.70
51863;DHT22;37900;52.996;6.278;2022-07-06T04:10:16;19.70;98.70
51863;DHT22;37900;52.996;6.278;2022-07-06T04:12:43;19.70;98.70
51863;DHT22;37900;52.996;6.278;2022-07-06T04:15:10;19.70;98.70
51863;DHT22;37900;52.996;6.278;2022-07-06T04:17:36;19.70;98.70
51863;DHT22;37900;52.996;6.278;2022-07-06T04:20:22;19.70;98.70
51863;DHT22;37900;52.996;6.278;2022-07-06T04:22:49;19.70;98.70
51863;DHT22;37900;52.996;6.278;2022-07-06T04:25:15;19.70;98.70
51863;DHT22;37900;52.996;6.278;2022-07-06T04:27:41;19.70;98.70
51863;DHT22;37900;52.996;6.278;2022-07-06T04:30:08;19.70;98.70
51863;DHT22;37900;52.996;6.278;2022-07-06T04:32:34;19.70;98.70
51863;DHT22;37900;52.996;6.278;2022-07-06T04:35:00;19.60;98.70
51863;DHT22;37900;52.996;6.278;2022-07-06T04:37:26;19.70;98.70
51863;DHT22;37900;52.996;6.278;2022-07-06T04:39:52;19.70;98.70
51863;DHT22;37900;52.996;6.278;2022-07-06T04:42:18;19.60;98.70
51863;DHT22;37900;52.996;6.278;2022-07-06T04:44:44;19.70;98.80
51863;DHT22;37900;52.996;6.278;2022-07-06T04:47:11;19.70;98.80
51863;DHT22;37900;52.996;6.278;2022-07-06T04:49:37;19.70;99.00
51863;DHT22;37900;52.996;6.278;2022-07-06T04:52:03;19.70;98.80
51863;DHT22;37900;52.996;6.278;2022-07-06T04:54:29;19.70;98.80
51863;DHT22;37900;52.996;6.278;2022-07-06T04:56:55;19.70;98.80
51863;DHT22;37900;52.996;6.278;2022-07-06T04:59:23;19.70;98.80
51863;DHT22;37900;52.996;6.278;2022-07-06T05:01:49;19.70;98.80
51863;DHT22;37900;52.996;6.278;2022-07-06T05:04:15;19.70;98.80
51863;DHT22;37900;52.996;6.278;2022-07-06T05:06:43;19.60;98.80
51863;DHT22;37900;52.996;6.278;2022-07-06T05:09:09;19.70;98.90
51863;DHT22;37900;52.996;6.278;2022-07-06T05:11:35;19.70;98.90
51863;DHT22;37900;52.996;6.278;2022-07-06T05:14:01;19.70;98.90
51863;DHT22;37900;52.996;6.278;2022-07-06T05:16:27;19.70;98.90
51863;DHT22;37900;52.996;6.278;2022-07-06T05:18:52;19.70;98.90
51863;DHT22;37900;52.996;6.278;2022-07-06T05:21:18;19.70;98.90
51863;DHT22;37900;52.996;6.278;2022-07-06T05:23:44;19.70;98.90
51863;DHT22;37900;52.996;6.278;2022-07-06T05:26:09;19.70;98.90
51863;DHT22;37900;52.996;6.278;2022-07-06T05:28:35;19.70;98.90
51863;DHT22;37900;52.996;6.278;2022-07-06T05:31:00;19.70;98.90
51863;DHT22;37900;52.996;6.278;2022-07-06T05:33:29;19.70;98.90
51863;DHT22;37900;52.996;6.278;2022-07-06T05:35:55;19.70;98.90
51863;DHT22;37900;52.996;6.278;2022-07-06T05:38:21;19.70;98.90
51863;DHT22;37900;52.996;6.278;2022-07-06T05:40:47;19.70;98.90
51863;DHT22;37900;52.996;6.278;2022-07-06T05:43:12;19.70;98.90
51863;DHT22;37900;52.996;6.278;2022-07-06T05:45:38;19.60;98.90
51863;DHT22;37900;52.996;6.278;2022-07-06T05:48:04;19.70;98.90
51863;DHT22;37900;52.996;6.278;2022-07-06T05:50:48;19.60;98.90
51863;DHT22;37900;52.996;6.278;2022-07-06T05:53:14;19.70;98.90
51863;DHT22;37900;52.996;6.278;2022-07-06T05:55:39;19.60;98.90
51863;DHT22;37900;52.996;6.278;2022-07-06T05:58:06;19.70;98.90
51863;DHT22;37900;52.996;6.278;2022-07-06T06:00:32;19.70;98.90
51863;DHT22;37900;52.996;6.278;2022-07-06T06:02:58;19.60;98.90
51863;DHT22;37900;52.996;6.278;2022-07-06T06:05:24;19.60;98.90
51863;DHT22;37900;52.996;6.278;2022-07-06T06:07:50;19.60;98.90
51863;DHT22;37900;52.996;6.278;2022-07-06T06:10:17;19.60;99.00
51863;DHT22;37900;52.996;6.278;2022-07-06T06:12:44;19.60;99.00
51863;DHT22;37900;52.996;6.278;2022-07-06T06:15:10;19.60;99.00
51863;DHT22;37900;52.996;6.278;2022-07-06T06:17:37;19.60;99.00
51863;DHT22;37900;52.996;6.278;2022-07-06T06:20:05;19.60;99.00
51863;DHT22;37900;52.996;6.278;2022-07-06T06:22:43;19.60;99.00
51863;DHT22;37900;52.996;6.278;2022-07-06T06:25:09;19.60;99.00
51863;DHT22;37900;52.996;6.278;2022-07-06T06:27:35;19.60;99.00
51863;DHT22;37900;52.996;6.278;2022-07-06T06:30:00;19.60;99.00
51863;DHT22;37900;52.996;6.278;2022-07-06T06:32:26;19.60;99.00
51863;DHT22;37900;52.996;6.278;2022-07-06T06:34:52;19.60;99.00
51863;DHT22;37900;52.996;6.278;2022-07-06T06:37:17;19.60;99.00
51863;DHT22;37900;52.996;6.278;2022-07-06T06:39:43;19.60;99.00
51863;DHT22;37900;52.996;6.278;2022-07-06T06:42:09;19.60;99.00
51863;DHT22;37900;52.996;6.278;2022-07-06T06:44:34;19.60;99.10
51863;DHT22;37900;52.996;6.278;2022-07-06T06:47:00;19.60;99.00
51863;DHT22;37900;52.996;6.278;2022-07-06T06:49:26;19.60;99.10
51863;DHT22;37900;52.996;6.278;2022-07-06T06:51:52;19.60;99.10
51863;DHT22;37900;52.996;6.278;2022-07-06T06:54:17;19.60;99.10
51863;DHT22;37900;52.996;6.278;2022-07-06T06:56:43;19.60;99.10
51863;DHT22;37900;52.996;6.278;2022-07-06T06:59:09;19.60;99.10
51863;DHT22;37900;52.996;6.278;2022-07-06T07:01:34;19.60;99.10
51863;DHT22;37900;52.996;6.278;2022-07-06T07:04:00;19.60;99.10
51863;DHT22;37900;52.996;6.278;2022-07-06T07:06:26;19.60;99.10
51863;DHT22;37900;52.996;6.278;2022-07-06T07:08:52;19.60;99.10
51863;DHT22;37900;52.996;6.278;2022-07-06T07:11:23;19.60;99.10
51863;DHT22;37900;52.996;6.278;2022-07-06T07:13:49;19.60;99.10
51863;DHT22;37900;52.996;6.278;2022-07-06T07:16:14;19.60;99.20
51863;DHT22;37900;52.996;6.278;2022-07-06T07:18:40;19.60;99.30
51863;DHT22;37900;52.996;6.278;2022-07-06T07:21:06;19.60;99.40
51863;DHT22;37900;52.996;6.278;2022-07-06T07:23:32;19.60;99.50
51863;DHT22;37900;52.996;6.278;2022-07-06T07:25:58;19.60;99.60
51863;DHT22;37900;52.996;6.278;2022-07-06T07:28:23;19.60;99.60
51863;DHT22;37900;52.996;6.278;2022-07-06T07:30:49;19.60;99.60
51863;DHT22;37900;52.996;6.278;2022-07-06T07:33:16;19.70;99.60
51863;DHT22;37900;52.996;6.278;2022-07-06T07:35:42;19.70;99.60
51863;DHT22;37900;52.996;6.278;2022-07-06T07:38:07;19.70;99.60
51863;DHT22;37900;52.996;6.278;2022-07-06T07:40:33;19.70;99.50
51863;DHT22;37900;52.996;6.278;2022-07-06T07:43:00;19.70;99.50
51863;DHT22;37900;52.996;6.278;2022-07-06T07:45:26;19.70;99.40
51863;DHT22;37900;52.996;6.278;2022-07-06T07:47:52;19.70;99.40
51863;DHT22;37900;52.996;6.278;2022-07-06T07:50:18;19.70;99.40
51863;DHT22;37900;52.996;6.278;2022-07-06T07:52:44;19.70;99.30
51863;DHT22;37900;52.996;6.278;2022-07-06T07:55:10;19.70;99.30
51863;DHT22;37900;52.996;6.278;2022-07-06T07:57:35;19.70;99.30
51863;DHT22;37900;52.996;6.278;2022-07-06T08:00:02;19.60;99.20
51863;DHT22;37900;52.996;6.278;2022-07-06T08:02:29;19.70;99.20
51863;DHT22;37900;52.996;6.278;2022-07-06T08:04:55;19.70;99.20
51863;DHT22;37900;52.996;6.278;2022-07-06T08:07:21;19.70;99.20
51863;DHT22;37900;52.996;6.278;2022-07-06T08:09:46;19.70;99.10
51863;DHT22;37900;52.996;6.278;2022-07-06T08:12:12;19.70;99.10
51863;DHT22;37900;52.996;6.278;2022-07-06T08:14:38;19.70;99.10
51863;DHT22;37900;52.996;6.278;2022-07-06T08:17:04;19.70;99.00
51863;DHT22;37900;52.996;6.278;2022-07-06T08:19:30;19.70;99.00
51863;DHT22;37900;52.996;6.278;2022-07-06T08:21:57;19.70;98.90
51863;DHT22;37900;52.996;6.278;2022-07-06T08:24:22;19.60;98.90
51863;DHT22;37900;52.996;6.278;2022-07-06T08:26:48;19.60;98.80
51863;DHT22;37900;52.996;6.278;2022-07-06T08:29:14;19.60;98.80
51863;DHT22;37900;52.996;6.278;2022-07-06T08:31:40;19.70;98.80
51863;DHT22;37900;52.996;6.278;2022-07-06T08:34:05;19.70;98.80
51863;DHT22;37900;52.996;6.278;2022-07-06T08:36:31;19.70;98.70
51863;DHT22;37900;52.996;6.278;2022-07-06T08:38:57;19.70;98.70
51863;DHT22;37900;52.996;6.278;2022-07-06T08:41:25;19.60;98.60
51863;DHT22;37900;52.996;6.278;2022-07-06T08:43:52;19.60;98.60
51863;DHT22;37900;52.996;6.278;2022-07-06T08:46:19;19.60;98.60
51863;DHT22;37900;52.996;6.278;2022-07-06T08:48:45;19.70;98.60
51863;DHT22;37900;52.996;6.278;2022-07-06T08:51:13;19.70;98.50
51863;DHT22;37900;52.996;6.278;2022-07-06T08:56:20;19.60;98.50
51863;DHT22;37900;52.996;6.278;2022-07-06T08:58:46;19.60;98.40
51863;DHT22;37900;52.996;6.278;2022-07-06T09:01:12;19.70;98.30
51863;DHT22;37900;52.996;6.278;2022-07-06T09:03:41;19.60;98.20
51863;DHT22;37900;52.996;6.278;2022-07-06T09:06:07;19.70;98.20
51863;DHT22;37900;52.996;6.278;2022-07-06T09:08:34;19.70;98.20
51863;DHT22;37900;52.996;6.278;2022-07-06T09:11:02;19.70;98.10
51863;DHT22;37900;52.996;6.278;2022-07-06T09:13:28;19.70;98.10
51863;DHT22;37900;52.996;6.278;2022-07-06T09:15:54;19.70;98.00
51863;DHT22;37900;52.996;6.278;2022-07-06T09:18:21;19.70;98.00
51863;DHT22;37900;52.996;6.278;2022-07-06T09:20:47;19.70;97.90
51863;DHT22;37900;52.996;6.278;2022-07-06T09:23:15;19.70;97.80
51863;DHT22;37900;52.996;6.278;2022-07-06T09:25:42;19.60;97.80
51863;DHT22;37900;52.996;6.278;2022-07-06T09:28:08;19.70;97.80
51863;DHT22;37900;52.996;6.278;2022-07-06T09:30:34;19.60;97.70
51863;DHT22;37900;52.996;6.278;2022-07-06T09:33:07;19.60;97.70
51863;DHT22;37900;52.996;6.278;2022-07-06T09:35:38;19.70;97.60
51863;DHT22;37900;52.996;6.278;2022-07-06T09:38:09;19.70;97.60
51863;DHT22;37900;52.996;6.278;2022-07-06T09:40:44;19.70;97.60
51863;DHT22;37900;52.996;6.278;2022-07-06T09:43:23;19.70;97.50
51863;DHT22;37900;52.996;6.278;2022-07-06T09:45:54;19.60;97.40
51863;DHT22;37900;52.996;6.278;2022-07-06T09:48:25;19.60;97.40
51863;DHT22;37900;52.996;6.278;2022-07-06T09:50:56;19.70;97.40
51863;DHT22;37900;52.996;6.278;2022-07-06T09:53:24;19.70;97.40
51863;DHT22;37900;52.996;6.278;2022-07-06T09:55:51;19.70;97.30
51863;DHT22;37900;52.996;6.278;2022-07-06T09:58:17;19.70;97.30
51863;DHT22;37900;52.996;6.278;2022-07-06T10:00:43;19.70;97.20
51863;DHT22;37900;52.996;6.278;2022-07-06T10:03:10;19.60;97.30
51863;DHT22;37900;52.996;6.278;2022-07-06T10:05:38;19.60;97.20
51863;DHT22;37900;52.996;6.278;2022-07-06T10:08:06;19.60;97.20
51863;DHT22;37900;52.996;6.278;2022-07-06T10:10:38;19.70;97.20
51863;DHT22;37900;52.996;6.278;2022-07-06T10:13:05;19.70;97.10
51863;DHT22;37900;52.996;6.278;2022-07-06T10:15:36;19.70;97.00
51863;DHT22;37900;52.996;6.278;2022-07-06T10:18:07;19.70;97.00
51863;DHT22;37900;52.996;6.278;2022-07-06T10:20:35;19.70;96.90
51863;DHT22;37900;52.996;6.278;2022-07-06T10:23:06;19.60;96.80
51863;DHT22;37900;52.996;6.278;2022-07-06T10:25:33;19.70;96.70
51863;DHT22;37900;52.996;6.278;2022-07-06T10:27:59;19.60;96.70
51863;DHT22;37900;52.996;6.278;2022-07-06T10:30:27;19.70;96.70
51863;DHT22;37900;52.996;6.278;2022-07-06T10:32:55;19.70;96.70
51863;DHT22;37900;52.996;6.278;2022-07-06T10:35:21;19.70;96.60
51863;DHT22;37900;52.996;6.278;2022-07-06T10:38:07;19.70;96.60
51863;DHT22;37900;52.996;6.278;2022-07-06T10:40:34;19.70;96.40
51863;DHT22;37900;52.996;6.278;2022-07-06T10:43:19;19.70;96.50
51863;DHT22;37900;52.996;6.278;2022-07-06T10:50:37;19.70;96.40
51863;DHT22;37900;52.996;6.278;2022-07-06T10:53:03;19.70;96.60
51863;DHT22;37900;52.996;6.278;2022-07-06T10:55:37;19.60;96.30
51863;DHT22;37900;52.996;6.278;2022-07-06T10:58:04;19.60;96.30
51863;DHT22;37900;52.996;6.278;2022-07-06T11:00:52;19.70;96.20
51863;DHT22;37900;52.996;6.278;2022-07-06T11:03:48;19.70;96.10
51863;DHT22;37900;52.996;6.278;2022-07-06T11:06:22;19.70;96.10
51863;DHT22;37900;52.996;6.278;2022-07-06T11:08:56;19.70;96.10
51863;DHT22;37900;52.996;6.278;2022-07-06T11:11:38;19.70;96.10
51863;DHT22;37900;52.996;6.278;2022-07-06T11:14:16;19.70;96.00
51863;DHT22;37900;52.996;6.278;2022-07-06T11:19:21;19.60;96.00
51863;DHT22;37900;52.996;6.278;2022-07-06T11:24:33;19.60;95.90
51863;DHT22;37900;52.996;6.278;2022-07-06T11:27:00;19.70;95.90
51863;DHT22;37900;52.996;6.278;2022-07-06T11:29:28;19.70;95.90
51863;DHT22;37900;52.996;6.278;2022-07-06T11:31:56;19.70;95.90
51863;DHT22;37900;52.996;6.278;2022-07-06T11:34:27;19.70;95.90
51863;DHT22;37900;52.996;6.278;2022-07-06T11:37:06;19.60;95.80
51863;DHT22;37900;52.996;6.278;2022-07-06T11:39:34;19.70;95.70
51863;DHT22;37900;52.996;6.278;2022-07-06T11:42:01;19.70;95.70
51863;DHT22;37900;52.996;6.278;2022-07-06T11:44:29;19.60;95.60
51863;DHT22;37900;52.996;6.278;2022-07-06T11:46:56;19.60;95.60
51863;DHT22;37900;52.996;6.278;2022-07-06T11:49:23;19.70;95.60
51863;DHT22;37900;52.996;6.278;2022-07-06T11:51:49;19.70;95.60
51863;DHT22;37900;52.996;6.278;2022-07-06T11:54:17;19.70;95.60
51863;DHT22;37900;52.996;6.278;2022-07-06T11:56:55;19.70;95.60
51863;DHT22;37900;52.996;6.278;2022-07-06T11:59:28;19.70;95.60
51863;DHT22;37900;52.996;6.278;2022-07-06T12:02:08;19.60;95.60
51863;DHT22;37900;52.996;6.278;2022-07-06T12:04:38;19.70;95.50
51863;DHT22;37900;52.996;6.278;2022-07-06T12:07:10;19.60;95.50
51863;DHT22;37900;52.996;6.278;2022-07-06T12:09:42;19.70;95.50
51863;DHT22;37900;52.996;6.278;2022-07-06T12:12:09;19.70;95.50
51863;DHT22;37900;52.996;6.278;2022-07-06T12:14:38;19.70;95.50
51863;DHT22;37900;52.996;6.278;2022-07-06T12:17:13;19.60;95.50
51863;DHT22;37900;52.996;6.278;2022-07-06T12:19:40;19.70;95.60
51863;DHT22;37900;52.996;6.278;2022-07-06T12:22:06;19.70;95.70
51863;DHT22;37900;52.996;6.278;2022-07-06T12:24:34;19.60;95.70
51863;DHT22;37900;52.996;6.278;2022-07-06T12:27:11;19.70;95.70
51863;DHT22;37900;52.996;6.278;2022-07-06T12:29:37;19.70;95.70
51863;DHT22;37900;52.996;6.278;2022-07-06T12:32:03;19.70;96.00
51863;DHT22;37900;52.996;6.278;2022-07-06T12:34:31;19.70;95.70
51863;DHT22;37900;52.996;6.278;2022-07-06T12:37:06;19.70;95.60
51863;DHT22;37900;52.996;6.278;2022-07-06T12:39:44;19.70;95.50
51863;DHT22;37900;52.996;6.278;2022-07-06T12:42:12;19.70;95.60
51863;DHT22;37900;52.996;6.278;2022-07-06T12:44:44;19.70;95.60
51863;DHT22;37900;52.996;6.278;2022-07-06T12:47:10;19.70;95.60
51863;DHT22;37900;52.996;6.278;2022-07-06T12:49:38;19.70;95.60
51863;DHT22;37900;52.996;6.278;2022-07-06T12:52:10;19.70;95.60
51863;DHT22;37900;52.996;6.278;2022-07-06T12:54:48;19.70;95.60
51863;DHT22;37900;52.996;6.278;2022-07-06T12:57:22;19.70;95.60
51863;DHT22;37900;52.996;6.278;2022-07-06T12:59:56;19.70;95.50
51863;DHT22;37900;52.996;6.278;2022-07-06T13:02:25;19.70;95.50
51863;DHT22;37900;52.996;6.278;2022-07-06T13:07:22;19.70;95.50
51863;DHT22;37900;52.996;6.278;2022-07-06T13:09:48;19.70;95.50
51863;DHT22;37900;52.996;6.278;2022-07-06T13:12:14;19.70;95.50
51863;DHT22;37900;52.996;6.278;2022-07-06T13:14:39;19.70;95.50
51863;DHT22;37900;52.996;6.278;2022-07-06T13:17:05;19.70;95.50
51863;DHT22;37900;52.996;6.278;2022-07-06T13:19:31;19.70;95.50
51863;DHT22;37900;52.996;6.278;2022-07-06T13:21:57;19.70;95.60
51863;DHT22;37900;52.996;6.278;2022-07-06T13:24:22;19.70;95.60
51863;DHT22;37900;52.996;6.278;2022-07-06T13:26:48;19.70;95.60
51863;DHT22;37900;52.996;6.278;2022-07-06T13:29:14;19.70;95.70
51863;DHT22;37900;52.996;6.278;2022-07-06T13:31:40;19.70;95.70
51863;DHT22;37900;52.996;6.278;2022-07-06T13:34:07;19.70;95.70
51863;DHT22;37900;52.996;6.278;2022-07-06T13:36:34;19.80;95.80
51863;DHT22;37900;52.996;6.278;2022-07-06T13:39:00;19.70;95.80
51863;DHT22;37900;52.996;6.278;2022-07-06T13:41:26;19.70;95.90
51863;DHT22;37900;52.996;6.278;2022-07-06T13:43:52;19.80;95.90
51863;DHT22;37900;52.996;6.278;2022-07-06T13:46:18;19.70;95.90
51863;DHT22;37900;52.996;6.278;2022-07-06T13:48:44;19.80;95.90
51863;DHT22;37900;52.996;6.278;2022-07-06T13:51:10;19.70;95.90
51863;DHT22;37900;52.996;6.278;2022-07-06T13:53:35;19.70;95.80
51863;DHT22;37900;52.996;6.278;2022-07-06T13:56:02;19.80;95.80
51863;DHT22;37900;52.996;6.278;2022-07-06T13:58:28;19.70;95.80
51863;DHT22;37900;52.996;6.278;2022-07-06T14:00:54;19.70;95.70
51863;DHT22;37900;52.996;6.278;2022-07-06T14:03:20;19.70;95.70
51863;DHT22;37900;52.996;6.278;2022-07-06T14:05:47;19.80;95.60
51863;DHT22;37900;52.996;6.278;2022-07-06T14:08:13;19.70;95.50
51863;DHT22;37900;52.996;6.278;2022-07-06T14:10:38;19.70;95.50
51863;DHT22;37900;52.996;6.278;2022-07-06T14:13:04;19.70;95.40
51863;DHT22;37900;52.996;6.278;2022-07-06T14:15:30;19.70;95.30
51863;DHT22;37900;52.996;6.278;2022-07-06T14:17:56;19.70;95.20
51863;DHT22;37900;52.996;6.278;2022-07-06T14:20:22;19.70;95.20
51863;DHT22;37900;52.996;6.278;2022-07-06T14:22:48;19.70;95.10
51863;DHT22;37900;52.996;6.278;2022-07-06T14:25:14;19.70;95.10
51863;DHT22;37900;52.996;6.278;2022-07-06T14:27:39;19.70;95.00
51863;DHT22;37900;52.996;6.278;2022-07-06T14:30:06;19.70;95.00
51863;DHT22;37900;52.996;6.278;2022-07-06T14:32:32;19.70;95.00
51863;DHT22;37900;52.996;6.278;2022-07-06T14:34:58;19.70;94.90
51863;DHT22;37900;52.996;6.278;2022-07-06T14:37:24;19.70;94.90
51863;DHT22;37900;52.996;6.278;2022-07-06T14:39:49;19.70;94.80
51863;DHT22;37900;52.996;6.278;2022-07-06T14:42:16;19.70;94.80
51863;DHT22;37900;52.996;6.278;2022-07-06T14:44:42;19.70;94.80
51863;DHT22;37900;52.996;6.278;2022-07-06T14:47:07;19.70;94.70
51863;DHT22;37900;52.996;6.278;2022-07-06T14:49:33;19.70;94.70
51863;DHT22;37900;52.996;6.278;2022-07-06T14:51:59;19.70;94.70
51863;DHT22;37900;52.996;6.278;2022-07-06T14:54:25;19.70;94.60
51863;DHT22;37900;52.996;6.278;2022-07-06T14:56:51;19.70;94.60
51863;DHT22;37900;52.996;6.278;2022-07-06T14:59:17;19.70;94.60
51863;DHT22;37900;52.996;6.278;2022-07-06T15:01:43;19.70;94.60
51863;DHT22;37900;52.996;6.278;2022-07-06T15:04:09;19.70;94.50
51863;DHT22;37900;52.996;6.278;2022-07-06T15:06:36;19.70;94.50
51863;DHT22;37900;52.996;6.278;2022-07-06T15:09:02;19.70;94.50
51863;DHT22;37900;52.996;6.278;2022-07-06T15:11:32;19.70;94.40
51863;DHT22;37900;52.996;6.278;2022-07-06T15:13:59;19.70;94.40
51863;DHT22;37900;52.996;6.278;2022-07-06T15:16:25;19.70;94.40
51863;DHT22;37900;52.996;6.278;2022-07-06T15:18:51;19.70;94.40
51863;DHT22;37900;52.996;6.278;2022-07-06T15:21:17;19.70;94.40
51863;DHT22;37900;52.996;6.278;2022-07-06T15:23:43;19.70;94.40
51863;DHT22;37900;52.996;6.278;2022-07-06T15:26:09;19.70;94.40
51863;DHT22;37900;52.996;6.278;2022-07-06T15:28:35;19.70;94.30
51863;DHT22;37900;52.996;6.278;2022-07-06T15:31:01;19.70;94.30
51863;DHT22;37900;52.996;6.278;2022-07-06T15:33:27;19.70;94.20
51863;DHT22;37900;52.996;6.278;2022-07-06T15:35:52;19.70;94.30
51863;DHT22;37900;52.996;6.278;2022-07-06T15:38:18;19.70;94.20
51863;DHT22;37900;52.996;6.278;2022-07-06T15:40:47;19.70;94.20
51863;DHT22;37900;52.996;6.278;2022-07-06T15:43:27;19.70;94.20
51863;DHT22;37900;52.996;6.278;2022-07-06T15:45:56;19.70;94.20